Time;durP1;ratioP1;P1;durP2;ratioP2;P2;SDS_P1;SDS_P2;PMS_P1;PMS_P2;Temp;Humidity;BMP_temperature;BMP_pressure;BME280_temperature;BME280_humidity;BME280_pressure;Samples;Min_cycle;Max_cycle;Signal;HPM_P1;HPM_P2
2022/06/30 00:01:12;;;;;;;10.90;8.30;;;;;;;21.33;74.38;100296.17;104241;1277;94412;-76
2022/06/30 00:03:39;;;;;;;12.60;8.20;;;;;;;21.29;74.34;100296.27;104114;1276;139259;-76
2022/06/30 00:06:08;;;;;;;14.00;8.50;;;;;;;21.28;74.63;100297.48;104242;1276;99482;-74
2022/06/30 00:08:36;;;;;;;12.80;8.50;;;;;;;21.33;74.52;100298.17;104111;1276;138550;-77
2022/06/30 00:11:06;;;;;;;11.40;8.30;;;;;;;21.37;74.59;100293.15;104244;1277;94686;-76
2022/06/30 00:13:40;;;;;;;13.00;9.10;;;;;;;21.39;74.19;100291.56;104242;1276;94676;-75
2022/06/30 00:16:09;;;;;;;13.10;8.80;;;;;;;21.38;74.35;100291.09;104170;1276;138351;-74
2022/06/30 00:18:38;;;;;;;11.50;7.80;;;;;;;21.31;74.58;100284.06;104245;1277;98489;-75
2022/06/30 00:21:07;;;;;;;13.30;8.60;;;;;;;21.27;74.61;100279.08;104097;1276;138757;-74
2022/06/30 00:23:35;;;;;;;13.10;9.20;;;;;;;21.26;75.07;100273.95;104208;1276;95430;-73
2022/06/30 00:26:04;;;;;;;10.80;8.30;;;;;;;21.22;75.14;100270.23;104236;1276;94327;-75
2022/06/30 00:28:32;;;;;;;13.70;8.50;;;;;;;21.24;75.18;100278.05;104078;1277;138751;-76
2022/06/30 00:31:00;;;;;;;11.30;8.50;;;;;;;21.29;75.26;100279.35;104231;1276;98309;-75
2022/06/30 00:33:28;;;;;;;14.50;9.40;;;;;;;21.30;75.23;100279.24;104066;1277;138246;-75
2022/06/30 00:35:56;;;;;;;11.70;8.90;;;;;;;21.32;75.08;100271.86;104270;1277;94444;-76
2022/06/30 00:38:24;;;;;;;13.50;9.00;;;;;;;21.32;74.93;100267.55;104165;1276;141070;-76
2022/06/30 00:40:52;;;;;;;11.80;8.70;;;;;;;21.22;75.37;100261.73;104227;1276;108554;-76
2022/06/30 00:43:20;;;;;;;14.20;8.80;;;;;;;21.17;75.45;100258.52;104209;1278;98331;-75
2022/06/30 00:45:49;;;;;;;12.30;8.80;;;;;;;21.14;75.55;100256.72;104094;1276;138694;-75
2022/06/30 00:48:18;;;;;;;12.20;8.40;;;;;;;21.14;75.90;100251.52;104211;1277;95613;-76
2022/06/30 00:50:46;;;;;;;13.60;9.40;;;;;;;21.14;75.90;100254.94;104145;1277;138871;-75
2022/06/30 00:53:17;;;;;;;12.30;9.60;;;;;;;21.12;75.94;100261.61;104191;1277;107933;-76
2022/06/30 00:55:46;;;;;;;14.10;9.20;;;;;;;21.13;76.04;100256.08;104234;1276;98937;-75
2022/06/30 00:58:17;;;;;;;12.90;9.30;;;;;;;21.16;75.95;100254.94;104101;1278;138111;-77
2022/06/30 01:00:49;;;;;;;11.30;8.40;;;;;;;21.14;75.80;100256.73;104668;1277;94329;-76
2022/06/30 01:03:17;;;;;;;11.60;8.70;;;;;;;21.09;76.28;100259.42;104355;1276;138901;-77
2022/06/30 01:05:46;;;;;;;11.70;8.80;;;;;;;21.06;76.26;100259.83;104413;1276;107347;-77
2022/06/30 01:08:16;;;;;;;10.90;8.00;;;;;;;21.05;76.29;100261.89;104242;1278;99357;-75
2022/06/30 01:13:31;;;;;;;11.30;8.70;;;;;;;20.93;77.05;100257.89;104251;1276;94356;-76
2022/06/30 01:16:00;;;;;;;12.40;9.60;;;;;;;20.90;77.03;100261.19;104282;1276;139312;-76
2022/06/30 01:18:28;;;;;;;12.20;9.30;;;;;;;20.90;77.00;100260.63;104258;1276;107443;-76
2022/06/30 01:20:56;;;;;;;11.40;9.00;;;;;;;20.89;77.05;100257.09;104150;1276;138970;-75
2022/06/30 01:23:24;;;;;;;11.60;9.10;;;;;;;20.86;77.25;100251.38;104230;1276;108212;-76
2022/06/30 01:25:53;;;;;;;15.60;9.40;;;;;;;20.86;77.16;100247.70;104239;1276;94339;-76
2022/06/30 01:28:22;;;;;;;10.90;8.80;;;;;;;20.86;77.09;100244.83;104044;1276;141557;-76
2022/06/30 01:30:49;;;;;;;14.60;9.40;;;;;;;20.84;77.45;100250.02;104234;1278;108599;-76
2022/06/30 01:33:17;;;;;;;12.40;9.50;;;;;;;20.86;77.26;100252.20;104127;1277;138893;-76
2022/06/30 01:35:46;;;;;;;12.40;9.90;;;;;;;20.83;77.53;100252.66;104225;1278;108841;-76
2022/06/30 01:38:13;;;;;;;12.30;9.20;;;;;;;20.78;77.87;100247.95;104280;1276;94801;-76
2022/06/30 01:40:41;;;;;;;14.40;9.10;;;;;;;20.67;78.45;100244.77;104123;1277;138461;-76
2022/06/30 01:43:11;;;;;;;11.40;9.20;;;;;;;20.62;78.51;100236.41;104221;1276;107371;-76
2022/06/30 01:45:40;;;;;;;11.00;8.10;;;;;;;20.61;78.50;100237.06;104155;1276;139082;-78
2022/06/30 01:48:09;;;;;;;13.10;8.40;;;;;;;20.57;78.84;100236.23;104183;1277;109336;-76
2022/06/30 01:50:38;;;;;;;12.10;9.00;;;;;;;20.52;78.94;100239.25;104122;1276;139721;-76
2022/06/30 01:53:06;;;;;;;11.70;8.90;;;;;;;20.53;79.26;100238.45;104169;1277;94401;-76
2022/06/30 01:55:34;;;;;;;10.80;8.40;;;;;;;20.52;79.48;100239.29;104246;1276;108648;-77
2022/06/30 01:58:02;;;;;;;11.20;7.50;;;;;;;20.49;79.63;100232.65;104112;1276;138601;-78
2022/06/30 02:00:31;;;;;;;11.00;8.20;;;;;;;20.44;79.92;100234.46;104290;1276;109859;-77
2022/06/30 02:03:00;;;;;;;13.90;9.00;;;;;;;20.39;80.18;100232.60;104116;1276;138410;-75
2022/06/30 02:05:28;;;;;;;13.50;9.00;;;;;;;20.38;80.23;100233.25;104273;1277;94257;-76
2022/06/30 02:07:56;;;;;;;11.90;9.00;;;;;;;20.35;80.38;100226.60;104228;1278;108315;-74
2022/06/30 02:10:24;;;;;;;12.40;8.80;;;;;;;20.38;80.32;100229.08;104181;1276;138900;-76
2022/06/30 02:12:53;;;;;;;12.90;9.30;;;;;;;20.40;80.10;100231.87;104289;1277;109259;-75
2022/06/30 02:15:24;;;;;;;12.60;9.20;;;;;;;20.45;79.82;100232.23;104200;1276;141814;-75
2022/06/30 02:17:53;;;;;;;11.00;8.70;;;;;;;20.52;79.37;100233.02;104253;1277;94476;-76
2022/06/30 02:20:23;;;;;;;11.00;8.10;;;;;;;20.58;79.37;100239.62;104166;1278;139627;-75
2022/06/30 02:22:58;;;;;;;12.50;8.60;;;;;;;20.62;79.22;100235.34;104487;1276;99425;-77
2022/06/30 02:25:28;;;;;;;11.20;8.00;;;;;;;20.64;79.26;100229.30;104349;1277;108825;-76
2022/06/30 02:27:56;;;;;;;11.80;8.40;;;;;;;20.58;79.63;100228.59;104242;1276;138238;-76
2022/06/30 02:30:24;;;;;;;12.60;9.40;;;;;;;20.53;79.36;100224.94;104433;1276;94286;-76
2022/06/30 02:32:53;;;;;;;10.70;8.20;;;;;;;20.52;79.51;100223.42;104272;1276;138744;-76
2022/06/30 02:35:21;;;;;;;14.20;8.60;;;;;;;20.48;79.87;100222.42;104447;1276;99397;-77
2022/06/30 02:37:49;;;;;;;13.20;8.80;;;;;;;20.50;79.82;100222.63;104331;1277;108825;-78
2022/06/30 02:40:17;;;;;;;11.40;8.20;;;;;;;20.53;79.55;100226.23;104277;1276;139071;-76
2022/06/30 02:42:46;;;;;;;12.50;8.00;;;;;;;20.57;79.64;100220.93;104351;1277;94319;-76
2022/06/30 02:45:14;;;;;;;16.20;9.20;;;;;;;20.58;79.54;100216.88;104256;1276;139462;-76
2022/06/30 02:47:43;;;;;;;10.80;7.80;;;;;;;20.56;79.72;100220.10;104382;1276;99411;-76
2022/06/30 02:50:12;;;;;;;11.90;8.70;;;;;;;20.57;79.95;100223.42;104427;1276;108821;-76
2022/06/30 02:52:42;;;;;;;10.20;8.20;;;;;;;20.60;79.55;100222.68;104237;1276;138338;-77
2022/06/30 02:55:10;;;;;;;12.10;8.90;;;;;;;20.60;79.50;100227.36;104438;1276;94377;-76
2022/06/30 02:57:39;;;;;;;10.60;8.30;;;;;;;20.64;79.52;100222.20;104208;1277;138444;-76
2022/06/30 03:00:09;;;;;;;11.80;8.40;;;;;;;20.67;79.46;100223.12;104328;1276;99481;-76
2022/06/30 03:02:38;;;;;;;10.40;8.00;;;;;;;20.67;79.07;100224.38;104220;1278;138834;-76
2022/06/30 03:05:07;;;;;;;11.10;8.80;;;;;;;20.66;79.23;100230.52;104325;1276;94415;-76
2022/06/30 03:07:36;;;;;;;12.60;8.80;;;;;;;20.67;79.44;100228.48;104357;1277;94334;-76
2022/06/30 03:10:04;;;;;;;12.00;8.30;;;;;;;20.69;79.24;100229.48;104528;1276;139139;-76
2022/06/30 03:12:32;;;;;;;12.60;8.70;;;;;;;20.66;79.52;100233.22;104376;1276;99705;-74
2022/06/30 03:15:00;;;;;;;11.60;8.80;;;;;;;20.63;79.71;100234.19;104257;1277;139227;-77
2022/06/30 03:17:28;;;;;;;12.20;8.50;;;;;;;20.60;79.68;100237.63;104385;1276;94821;-77
2022/06/30 03:19:56;;;;;;;11.10;7.60;;;;;;;20.58;79.79;100243.75;104320;1279;94311;-75
2022/06/30 03:22:24;;;;;;;11.00;8.60;;;;;;;20.57;79.93;100253.76;104245;1276;138131;-76
2022/06/30 03:24:52;;;;;;;10.30;7.60;;;;;;;20.56;80.02;100257.09;104348;1277;98591;-78
2022/06/30 03:27:20;;;;;;;13.50;8.40;;;;;;;20.54;80.16;100253.96;104131;1277;139295;-76
2022/06/30 03:29:48;;;;;;;10.70;8.00;;;;;;;20.54;80.22;100250.36;104335;1277;94321;-76
2022/06/30 03:32:16;;;;;;;11.90;8.80;;;;;;;20.52;80.31;100251.20;104277;1277;94759;-75
2022/06/30 03:34:44;;;;;;;13.90;9.30;;;;;;;20.54;79.73;100253.20;104222;1276;138617;-76
2022/06/30 03:37:12;;;;;;;14.40;9.40;;;;;;;20.60;80.02;100254.30;104358;1277;97067;-76
2022/06/30 03:39:40;;;;;;;11.70;8.50;;;;;;;20.65;79.69;100260.00;104237;1277;138930;-75
2022/06/30 03:42:08;;;;;;;12.90;9.30;;;;;;;20.68;79.60;100260.91;104321;1276;94619;-76
2022/06/30 03:44:36;;;;;;;11.80;8.30;;;;;;;20.68;79.73;100262.92;104224;1276;138252;-75
2022/06/30 03:47:04;;;;;;;11.70;8.50;;;;;;;20.61;79.89;100261.37;104359;1276;108317;-76
2022/06/30 03:49:32;;;;;;;11.50;8.40;;;;;;;20.61;79.94;100271.90;104320;1276;99588;-76
2022/06/30 03:52:00;;;;;;;11.70;8.50;;;;;;;20.60;80.11;100271.95;104250;1276;139325;-76
2022/06/30 03:54:28;;;;;;;13.20;8.80;;;;;;;20.61;80.23;100271.88;104346;1276;94318;-77
2022/06/30 03:56:56;;;;;;;11.50;8.40;;;;;;;20.62;80.25;100271.43;104264;1276;139781;-75
2022/06/30 03:59:24;;;;;;;12.60;8.60;;;;;;;20.64;80.26;100266.79;104324;1278;108710;-76
2022/06/30 04:01:52;;;;;;;13.20;8.20;;;;;;;20.66;80.29;100266.65;104341;1277;99756;-76
2022/06/30 04:04:20;;;;;;;9.90;7.30;;;;;;;20.62;80.59;100266.74;104233;1276;138977;-75
2022/06/30 04:06:48;;;;;;;12.20;9.20;;;;;;;20.58;80.80;100264.14;104383;1278;94313;-76
2022/06/30 04:09:16;;;;;;;12.60;7.70;;;;;;;20.60;80.82;100266.55;104261;1276;138756;-75
2022/06/30 04:11:44;;;;;;;14.20;9.00;;;;;;;20.63;80.85;100270.48;104362;1277;108413;-76
2022/06/30 04:14:12;;;;;;;13.80;8.90;;;;;;;20.70;80.35;100269.23;104272;1277;98414;-74
2022/06/30 04:16:40;;;;;;;11.10;7.50;;;;;;;20.81;80.58;100267.77;104181;1277;138628;-75
2022/06/30 04:19:08;;;;;;;12.90;8.20;;;;;;;20.90;80.41;100265.13;104311;1276;94252;-75
2022/06/30 04:21:36;;;;;;;11.80;8.90;;;;;;;20.96;80.27;100260.38;104218;1276;138985;-76
2022/06/30 04:24:04;;;;;;;11.50;8.40;;;;;;;21.06;80.04;100256.23;104227;1276;107343;-75
2022/06/30 04:26:32;;;;;;;12.30;9.10;;;;;;;21.24;79.62;100256.00;104212;1276;138871;-74
2022/06/30 04:29:00;;;;;;;11.60;8.20;;;;;;;21.38;79.22;100256.97;104233;1277;108495;-76
2022/06/30 04:34:14;;;;;;;12.20;8.20;;;;;;;21.53;78.75;100264.41;104153;1277;138122;-76
2022/06/30 04:36:43;;;;;;;14.50;8.50;;;;;;;21.62;78.63;100263.56;104284;1276;107419;-76
2022/06/30 04:39:11;;;;;;;11.00;8.00;;;;;;;21.73;78.50;100263.08;104241;1276;139011;-75
2022/06/30 04:41:39;;;;;;;14.20;9.40;;;;;;;21.84;78.17;100260.44;104309;1276;108672;-76
2022/06/30 04:44:06;;;;;;;14.90;9.70;;;;;;;21.96;77.54;100259.73;104319;1277;94666;-76
2022/06/30 04:46:34;;;;;;;13.40;9.50;;;;;;;22.09;77.16;100265.23;104176;1277;138125;-77
2022/06/30 04:49:02;;;;;;;15.40;9.90;;;;;;;22.16;77.11;100268.16;104242;1278;108162;-76
2022/06/30 04:51:30;;;;;;;14.50;9.70;;;;;;;22.22;76.82;100272.58;104213;1278;138256;-77
2022/06/30 04:53:59;;;;;;;12.90;9.30;;;;;;;22.28;76.65;100270.48;104297;1276;108780;-77
2022/06/30 04:56:27;;;;;;;17.10;9.00;;;;;;;22.30;76.58;100271.56;104180;1277;139108;-76
2022/06/30 04:58:55;;;;;;;15.20;9.60;;;;;;;22.29;76.44;100272.02;104283;1276;94522;-76
2022/06/30 05:01:23;;;;;;;12.70;9.80;;;;;;;22.31;76.48;100272.20;104291;1278;108345;-76
2022/06/30 05:03:51;;;;;;;14.00;9.70;;;;;;;22.41;75.98;100277.84;104197;1278;138248;-76
2022/06/30 05:06:19;;;;;;;13.80;10.30;;;;;;;22.49;75.74;100280.46;104321;1277;108824;-76
2022/06/30 05:08:48;;;;;;;15.30;9.50;;;;;;;22.53;75.50;100281.96;104076;1276;193160;-76
2022/06/30 05:11:16;;;;;;;31.30;17.90;;;;;;;22.62;75.06;100287.27;104399;1276;94437;-76
2022/06/30 05:13:44;;;;;;;16.30;9.40;;;;;;;22.68;74.68;100288.05;104268;1277;107420;-76
2022/06/30 05:16:12;;;;;;;15.80;9.40;;;;;;;22.74;74.56;100290.45;104216;1276;139241;-77
2022/06/30 05:18:40;;;;;;;15.20;9.90;;;;;;;22.77;74.41;100291.98;104297;1277;107540;-77
2022/06/30 05:21:08;;;;;;;17.50;10.60;;;;;;;22.77;74.36;100293.50;104206;1277;138609;-77
2022/06/30 05:23:35;;;;;;;18.10;9.80;;;;;;;22.77;74.23;100296.70;104297;1277;94213;-76
2022/06/30 05:28:50;;;;;;;14.20;9.50;;;;;;;22.75;74.25;100297.59;104357;1276;98325;-76
2022/06/30 05:31:21;;;;;;;15.80;8.70;;;;;;;22.79;74.08;100295.10;104307;1276;108796;-76
2022/06/30 05:33:49;;;;;;;14.70;8.70;;;;;;;22.82;74.38;100292.38;104140;1277;138949;-76
2022/06/30 05:36:17;;;;;;;12.70;9.00;;;;;;;22.79;74.52;100287.91;104278;1277;94976;-77
2022/06/30 05:38:45;;;;;;;16.00;9.70;;;;;;;22.78;74.68;100292.34;104199;1276;138598;-76
2022/06/30 05:41:13;;;;;;;15.10;10.60;;;;;;;22.85;74.33;100294.13;104336;1278;99512;-76
2022/06/30 05:43:45;;;;;;;18.90;10.60;;;;;;;22.92;73.87;100300.98;104310;1277;108789;-76
2022/06/30 05:46:13;;;;;;;14.50;10.50;;;;;;;23.01;73.60;100308.39;104240;1276;138939;-74
2022/06/30 05:48:41;;;;;;;15.30;9.90;;;;;;;23.09;73.55;100310.18;104297;1277;94392;-75
2022/06/30 05:51:13;;;;;;;13.60;10.20;;;;;;;23.19;73.21;100302.10;104156;1278;138749;-74
2022/06/30 05:53:41;;;;;;;12.00;9.30;;;;;;;23.29;72.89;100296.27;104295;1278;99460;-74
2022/06/30 05:56:09;;;;;;;14.20;9.50;;;;;;;23.42;72.56;100289.80;104300;1276;107966;-75
2022/06/30 05:58:37;;;;;;;15.60;9.40;;;;;;;23.49;72.31;100302.96;104206;1276;138345;-76
2022/06/30 06:01:05;;;;;;;14.80;10.60;;;;;;;23.59;71.88;100306.99;104267;1276;94327;-75
2022/06/30 06:03:33;;;;;;;13.00;10.80;;;;;;;23.70;71.46;100308.99;104192;1276;139227;-75
2022/06/30 06:06:02;;;;;;;15.00;10.50;;;;;;;23.77;70.99;100303.14;104385;1278;99861;-75
2022/06/30 06:08:30;;;;;;;13.10;9.60;;;;;;;23.81;71.08;100299.42;104191;1276;138518;-76
2022/06/30 06:10:58;;;;;;;16.20;9.20;;;;;;;23.84;71.31;100288.30;104298;1279;94415;-76
2022/06/30 06:13:26;;;;;;;12.20;9.30;;;;;;;23.84;71.18;100285.50;104295;1278;94806;-77
2022/06/30 06:15:54;;;;;;;16.00;9.70;;;;;;;23.85;71.27;100290.89;104286;1276;138827;-76
2022/06/30 06:18:22;;;;;;;13.00;10.40;;;;;;;23.86;71.18;100291.16;104338;1276;98392;-77
2022/06/30 06:20:50;;;;;;;15.00;10.30;;;;;;;23.87;71.07;100291.65;104221;1276;138993;-76
2022/06/30 06:23:38;;;;;;;13.00;10.30;;;;;;;23.87;70.86;100287.11;104294;1278;94440;-76
2022/06/30 06:26:06;;;;;;;15.10;9.90;;;;;;;23.81;71.11;100281.25;104270;1277;94868;-77
2022/06/30 06:31:21;;;;;;;15.10;9.60;;;;;;;23.78;71.78;100278.45;104329;1276;98228;-77
2022/06/30 06:33:49;;;;;;;12.50;9.30;;;;;;;23.77;71.59;100282.86;104183;1276;139323;-75
2022/06/30 06:36:17;;;;;;;16.00;9.90;;;;;;;23.78;71.43;100287.85;104271;1276;94683;-74
2022/06/30 06:38:45;;;;;;;15.50;9.70;;;;;;;23.76;71.61;100285.29;104149;1279;138286;-75
2022/06/30 06:41:14;;;;;;;14.40;9.40;;;;;;;23.79;72.28;100281.39;104308;1276;107320;-75
2022/06/30 06:43:43;;;;;;;13.80;9.70;;;;;;;23.83;71.84;100280.40;104346;1278;99540;-76
2022/06/30 06:46:12;;;;;;;14.00;9.90;;;;;;;23.82;71.91;100275.41;104133;1276;138306;-75
2022/06/30 06:48:41;;;;;;;14.30;9.30;;;;;;;23.85;71.75;100280.70;104317;1276;94921;-75
2022/06/30 06:51:09;;;;;;;14.20;9.50;;;;;;;23.92;71.14;100292.77;104416;1276;141836;-75
2022/06/30 06:53:38;;;;;;;15.30;9.70;;;;;;;23.98;70.94;100299.83;104417;1278;108393;-74
2022/06/30 06:56:06;;;;;;;14.90;10.40;;;;;;;24.04;70.80;100299.48;104299;1277;99328;-76
2022/06/30 06:58:34;;;;;;;16.20;10.10;;;;;;;24.08;70.61;100301.70;104210;1276;138972;-74
2022/06/30 07:01:02;;;;;;;16.70;10.30;;;;;;;24.10;71.00;100297.17;104287;1276;94310;-73
2022/06/30 07:03:31;;;;;;;11.60;8.40;;;;;;;24.12;70.98;100290.27;104259;1278;138329;-76
2022/06/30 07:06:00;;;;;;;11.70;9.10;;;;;;;24.15;70.77;100291.50;104400;1278;109163;-75
2022/06/30 07:08:28;;;;;;;16.30;9.70;;;;;;;24.13;71.21;100292.73;104215;1276;139113;-75
2022/06/30 07:10:57;;;;;;;14.70;9.40;;;;;;;24.17;70.95;100294.02;104289;1278;108426;-74
2022/06/30 07:13:25;;;;;;;12.70;7.90;;;;;;;24.22;71.13;100286.91;104326;1276;94485;-74
2022/06/30 07:15:54;;;;;;;15.40;9.30;;;;;;;24.27;70.84;100288.66;104226;1278;138104;-74
2022/06/30 07:18:22;;;;;;;13.30;9.80;;;;;;;24.36;70.68;100286.84;104364;1276;107323;-74
2022/06/30 07:20:50;;;;;;;12.90;9.60;;;;;;;24.49;70.54;100292.80;104200;1277;138880;-74
2022/06/30 07:23:18;;;;;;;12.30;8.90;;;;;;;24.62;70.24;100293.88;104285;1278;108843;-73
2022/06/30 07:25:57;;;;;;;14.00;10.00;;;;;;;24.80;70.00;100292.30;104292;1276;94332;-76
2022/06/30 07:28:28;;;;;;;14.40;10.40;;;;;;;24.88;68.88;100289.42;104319;1276;138903;-75
2022/06/30 07:31:22;;;;;;;12.80;10.30;;;;;;;24.95;68.82;100299.71;104307;1278;108384;-75
2022/06/30 07:33:51;;;;;;;13.70;10.00;;;;;;;25.01;68.80;100315.34;104240;1278;138381;-75
2022/06/30 07:36:19;;;;;;;15.40;10.30;;;;;;;25.08;68.58;100322.15;104408;1276;107822;-75
2022/06/30 07:38:49;;;;;;;13.80;10.30;;;;;;;25.11;67.99;100324.60;104148;1279;138611;-72
2022/06/30 07:41:17;;;;;;;;;;;;;;;25.15;68.18;100325.39;104389;1276;94368;-73
2022/06/30 07:43:46;;;;;;;18.00;10.50;;;;;;;25.16;68.34;100321.30;104341;1276;105558;-72
2022/06/30 07:46:14;;;;;;;14.50;10.70;;;;;;;25.21;68.33;100329.91;104338;1276;138422;-73
2022/06/30 07:48:43;;;;;;;15.00;9.60;;;;;;;25.28;68.59;100333.28;104478;1277;109058;-74
2022/06/30 07:51:12;;;;;;;12.20;9.70;;;;;;;25.36;67.95;100337.64;104164;1277;138919;-75
2022/06/30 07:53:58;;;;;;;14.60;10.80;;;;;;;25.48;67.57;100333.13;104430;1276;94315;-72
2022/06/30 07:56:25;;;;;;;13.60;10.90;;;;;;;25.59;67.82;100334.56;104170;1278;138621;-72
2022/06/30 07:58:54;;;;;;;15.60;10.50;;;;;;;25.74;67.43;100326.30;104413;1276;99346;-72
2022/06/30 08:01:22;;;;;;;15.60;10.00;;;;;;;25.84;66.65;100325.34;104316;1274;109038;-72
2022/06/30 08:03:50;;;;;;;14.40;11.00;;;;;;;25.95;66.67;100325.50;104144;1279;138237;-72
2022/06/30 08:06:18;;;;;;;13.40;10.20;;;;;;;26.05;66.59;100326.20;104390;1276;94162;-72
2022/06/30 08:11:53;;;;;;;13.60;10.00;;;;;;;26.15;66.03;100335.66;104306;1277;99749;-72
2022/06/30 08:14:22;;;;;;;12.10;8.70;;;;;;;26.20;66.15;100339.77;104234;1276;139233;-73
2022/06/30 08:16:51;;;;;;;14.60;9.80;;;;;;;26.24;66.83;100339.00;104415;1277;94372;-73
2022/06/30 08:19:19;;;;;;;15.40;11.40;;;;;;;26.41;66.64;100336.16;104285;1277;94285;-73
2022/06/30 08:21:47;;;;;;;14.80;10.70;;;;;;;26.55;65.66;100331.02;104132;1277;138193;-73
2022/06/30 08:24:16;;;;;;;13.40;10.00;;;;;;;26.60;65.09;100328.17;104448;1276;98338;-74
2022/06/30 08:26:44;;;;;;;14.50;10.60;;;;;;;26.62;65.90;100327.19;104247;1277;138918;-73
2022/06/30 08:29:13;;;;;;;13.40;10.00;;;;;;;26.70;65.20;100329.37;104256;1277;94338;-73
2022/06/30 08:31:41;;;;;;;15.60;10.20;;;;;;;26.83;65.63;100328.88;104212;1278;94412;-74
2022/06/30 08:34:09;;;;;;;13.90;10.40;;;;;;;27.06;64.90;100326.35;104207;1278;138687;-73
2022/06/30 08:36:36;;;;;;;12.60;10.60;;;;;;;27.16;63.96;100325.89;104282;1276;99804;-72
2022/06/30 08:39:04;;;;;;;14.10;10.70;;;;;;;27.28;64.51;100324.20;104149;1279;138924;-73
2022/06/30 08:44:20;;;;;;;13.20;10.80;;;;;;;27.54;62.68;100321.67;104251;1277;94255;-74
2022/06/30 08:46:57;;;;;;;11.50;10.10;;;;;;;27.63;63.29;100321.34;104254;1276;108494;-74
2022/06/30 08:49:26;;;;;;;12.20;10.10;;;;;;;27.78;62.88;100317.81;104209;1278;99550;-73
2022/06/30 08:51:59;;;;;;;13.80;10.00;;;;;;;27.95;62.33;100311.52;104162;1276;138381;-73
2022/06/30 08:54:29;;;;;;;13.50;9.80;;;;;;;28.00;61.16;100304.88;104229;1278;94551;-73
2022/06/30 08:57:01;;;;;;;15.00;9.70;;;;;;;28.13;61.53;100304.98;104160;1278;138946;-73
2022/06/30 08:59:35;;;;;;;13.00;9.60;;;;;;;28.35;61.29;100298.59;104269;1279;108443;-74
2022/06/30 09:02:04;;;;;;;;;;;;;;;28.57;60.99;100299.05;104543;1278;99360;-72
2022/06/30 09:04:32;;;;;;;11.50;9.50;;;;;;;28.67;58.99;100296.19;104191;1276;124476;-73
2022/06/30 09:07:00;;;;;;;14.30;11.40;;;;;;;28.70;59.03;100295.00;104157;1276;94370;-74
2022/06/30 09:09:28;;;;;;;14.00;11.40;;;;;;;28.98;58.52;100294.38;104093;1276;140874;-71
2022/06/30 09:11:57;;;;;;;12.80;10.60;;;;;;;29.23;57.57;100288.14;104168;1276;108273;-72
2022/06/30 09:14:37;;;;;;;13.80;10.80;;;;;;;29.48;57.05;100285.98;104018;1279;137504;-73
2022/06/30 09:17:19;;;;;;;14.50;11.20;;;;;;;29.74;56.78;100281.35;104085;1276;107976;-73
2022/06/30 09:19:52;;;;;;;13.60;10.70;;;;;;;30.14;57.13;100282.02;104136;1278;95019;-74
2022/06/30 09:22:22;;;;;;;15.60;12.30;;;;;;;30.62;55.89;100293.11;104033;1278;138517;-73
2022/06/30 09:25:11;;;;;;;14.50;11.40;;;;;;;31.11;54.46;100291.04;104317;1276;108477;-74
2022/06/30 09:27:42;;;;;;;13.80;11.20;;;;;;;31.90;52.84;100290.02;104135;1278;138986;-74
2022/06/30 09:30:15;;;;;;;13.30;10.40;;;;;;;32.74;51.34;100274.54;104223;1276;107730;-75
2022/06/30 09:32:56;;;;;;;15.10;10.70;;;;;;;33.29;48.12;100270.83;104116;1276;139051;-72
2022/06/30 09:35:26;;;;;;;13.70;10.40;;;;;;;33.86;47.54;100270.27;104278;1278;95527;-75
2022/06/30 09:38:07;;;;;;;13.70;10.10;;;;;;;34.46;46.53;100262.77;104208;1276;108418;-74
2022/06/30 09:43:31;;;;;;;14.20;9.90;;;;;;;35.06;43.11;100259.40;104154;1278;108886;-73
2022/06/30 09:46:00;;;;;;;13.40;10.80;;;;;;;35.51;43.08;100265.36;104036;1278;138815;-74
2022/06/30 09:48:30;;;;;;;10.80;9.40;;;;;;;36.09;42.12;100264.24;104180;1276;94638;-73
2022/06/30 09:51:00;;;;;;;12.40;11.10;;;;;;;36.36;40.17;100263.42;104005;1277;138825;-74
2022/06/30 09:53:29;;;;;;;11.50;10.30;;;;;;;36.76;40.83;100253.95;104206;1276;99407;-73
2022/06/30 09:56:13;;;;;;;13.20;10.90;;;;;;;37.29;40.33;100247.52;104444;1278;109024;-73
2022/06/30 09:58:42;;;;;;;13.40;10.10;;;;;;;37.90;38.77;100251.83;104075;1276;138441;-73
2022/06/30 10:01:10;;;;;;;11.00;8.90;;;;;;;38.30;37.30;100248.30;104435;1279;95538;-72
2022/06/30 10:03:47;;;;;;;11.60;10.30;;;;;;;38.35;37.32;100247.69;104090;1278;138640;-73
2022/06/30 10:06:16;;;;;;;13.30;9.90;;;;;;;38.69;37.45;100250.20;104229;1276;96719;-73
2022/06/30 10:08:44;;;;;;;11.30;10.10;;;;;;;39.18;36.71;100248.61;104014;1277;138462;-72
2022/06/30 10:11:13;;;;;;;12.00;9.50;;;;;;;39.45;35.57;100242.72;104135;1278;94523;-72
2022/06/30 10:13:43;;;;;;;11.60;9.80;;;;;;;39.16;34.40;100233.80;104142;1278;94346;-73
2022/06/30 10:16:13;;;;;;;10.90;9.70;;;;;;;39.03;35.31;100228.13;104078;1277;140374;-73
2022/06/30 10:18:41;;;;;;;15.60;11.00;;;;;;;39.07;34.39;100228.50;104182;1276;100260;-73
2022/06/30 10:21:10;;;;;;;12.70;8.90;;;;;;;39.20;34.69;100228.73;104165;1276;138465;-73
2022/06/30 10:23:39;;;;;;;10.40;9.20;;;;;;;39.32;34.44;100222.46;104185;1276;94745;-74
2022/06/30 10:26:06;;;;;;;11.70;8.80;;;;;;;39.51;35.00;100224.88;104111;1279;94376;-73
2022/06/30 10:28:34;;;;;;;10.10;8.20;;;;;;;39.62;33.60;100226.17;104085;1278;139361;-70
2022/06/30 10:31:20;;;;;;;9.10;8.10;;;;;;;39.45;32.72;100224.65;104213;1278;99476;-72
2022/06/30 10:33:55;;;;;;;11.10;8.70;;;;;;;39.24;33.43;100219.95;104227;1276;138089;-74
2022/06/30 10:36:27;;;;;;;9.70;8.50;;;;;;;39.52;33.63;100218.63;104167;1276;95253;-74
2022/06/30 10:39:32;;;;;;;11.30;9.50;;;;;;;39.69;32.75;100215.84;104137;1279;138797;-72
2022/06/30 10:41:59;;;;;;;10.70;8.90;;;;;;;39.71;33.99;100218.74;104174;1276;109742;-72
2022/06/30 10:44:29;;;;;;;10.50;9.00;;;;;;;40.20;33.26;100216.05;104066;1276;139160;-73
2022/06/30 10:47:06;;;;;;;10.20;9.10;;;;;;;40.48;32.54;100209.20;104158;1276;108429;-73
2022/06/30 10:49:51;;;;;;;8.50;7.40;;;;;;;40.44;31.72;100209.76;104401;1278;96541;-72
2022/06/30 10:52:25;;;;;;;9.90;8.90;;;;;;;39.86;32.36;100209.92;104149;1277;138121;-74
2022/06/30 10:55:00;;;;;;;11.60;8.90;;;;;;;39.34;34.45;100205.96;104148;1277;109946;-73
2022/06/30 10:58:01;;;;;;;11.00;8.70;;;;;;;39.78;33.61;100203.42;104058;1278;138429;-73
2022/06/30 11:01:02;;;;;;;10.40;7.90;;;;;;;39.99;32.03;100202.49;104126;1279;109050;-72
2022/06/30 11:03:34;;;;;;;9.60;8.20;;;;;;;39.71;32.12;100201.40;104041;1278;138564;-71
2022/06/30 11:06:12;;;;;;;10.30;8.50;;;;;;;39.56;32.71;100195.25;104268;1279;95110;-73
2022/06/30 11:08:57;;;;;;;10.90;8.70;;;;;;;39.21;33.52;100193.11;104103;1278;138363;-73
2022/06/30 11:11:25;;;;;;;11.40;8.70;;;;;;;38.73;34.15;100186.99;104155;1278;100223;-72
2022/06/30 11:14:02;;;;;;;12.00;8.90;;;;;;;38.23;34.76;100186.59;104102;1278;108898;-73
2022/06/30 11:16:35;;;;;;;10.10;9.10;;;;;;;37.72;35.52;100190.58;104063;1278;138450;-73
2022/06/30 11:19:05;;;;;;;10.70;9.50;;;;;;;37.17;35.95;100186.77;104387;1277;95210;-73
2022/06/30 11:21:35;;;;;;;11.70;9.50;;;;;;;36.72;36.22;100182.19;104357;1276;138262;-73
2022/06/30 11:24:05;;;;;;;10.20;9.20;;;;;;;36.56;38.22;100179.32;104281;1277;97209;-73
2022/06/30 11:29:32;;;;;;;9.20;8.10;;;;;;;36.60;38.14;100168.17;104018;1277;96083;-74
2022/06/30 11:32:02;;;;;;;9.60;8.30;;;;;;;36.30;37.23;100174.41;104202;1276;97620;-70
2022/06/30 11:34:31;;;;;;;11.70;8.50;;;;;;;35.97;37.58;100173.23;104233;1276;139014;-72
2022/06/30 11:36:59;;;;;;;9.90;8.00;;;;;;;35.67;37.20;100172.71;104338;1276;99549;-72
2022/06/30 11:39:28;;;;;;;9.20;7.90;;;;;;;35.43;37.90;100168.37;104243;1276;138100;-73